sensor_id;sensor_type;location;lat;lon;timestamp;P1;durP1;ratioP1;P2;durP2;ratioP2
12784;SDS011;6456;42.680;23.260;2023-03-26T00:01:15;0.50;;;0.47;;
12784;SDS011;6456;42.680;23.260;2023-03-26T00:03:43;0.50;;;0.50;;
12784;SDS011;6456;42.680;23.260;2023-03-26T00:06:14;0.50;;;0.50;;
12784;SDS011;6456;42.680;23.260;2023-03-26T00:08:43;0.60;;;0.60;;
12784;SDS011;6456;42.680;23.260;2023-03-26T00:11:12;0.40;;;0.40;;
12784;SDS011;6456;42.680;23.260;2023-03-26T00:13:40;0.63;;;0.63;;
12784;SDS011;6456;42.680;23.260;2023-03-26T00:16:09;0.43;;;0.43;;
12784;SDS011;6456;42.680;23.260;2023-03-26T00:18:37;0.47;;;0.47;;
12784;SDS011;6456;42.680;23.260;2023-03-26T00:21:07;1.33;;;0.40;;
12784;SDS011;6456;42.680;23.260;2023-03-26T00:23:35;0.30;;;0.30;;
12784;SDS011;6456;42.680;23.260;2023-03-26T00:26:03;1.77;;;0.60;;
12784;SDS011;6456;42.680;23.260;2023-03-26T00:28:35;0.53;;;0.53;;
12784;SDS011;6456;42.680;23.260;2023-03-26T00:31:04;0.53;;;0.50;;
12784;SDS011;6456;42.680;23.260;2023-03-26T00:33:34;0.40;;;0.40;;
12784;SDS011;6456;42.680;23.260;2023-03-26T00:36:03;0.40;;;0.40;;
12784;SDS011;6456;42.680;23.260;2023-03-26T00:38:31;0.50;;;0.50;;
12784;SDS011;6456;42.680;23.260;2023-03-26T00:41:03;0.30;;;0.30;;
12784;SDS011;6456;42.680;23.260;2023-03-26T00:43:32;0.53;;;0.53;;
12784;SDS011;6456;42.680;23.260;2023-03-26T00:46:00;0.43;;;0.43;;
12784;SDS011;6456;42.680;23.260;2023-03-26T00:48:27;0.30;;;0.30;;
12784;SDS011;6456;42.680;23.260;2023-03-26T00:50:56;0.40;;;0.40;;
12784;SDS011;6456;42.680;23.260;2023-03-26T00:53:22;0.50;;;0.50;;
12784;SDS011;6456;42.680;23.260;2023-03-26T00:55:49;0.30;;;0.30;;
12784;SDS011;6456;42.680;23.260;2023-03-26T00:58:16;0.50;;;0.50;;
12784;SDS011;6456;42.680;23.260;2023-03-26T01:00:47;0.30;;;0.30;;
12784;SDS011;6456;42.680;23.260;2023-03-26T01:03:17;0.33;;;0.33;;
12784;SDS011;6456;42.680;23.260;2023-03-26T01:05:47;1.13;;;0.50;;
12784;SDS011;6456;42.680;23.260;2023-03-26T01:08:20;0.30;;;0.30;;
12784;SDS011;6456;42.680;23.260;2023-03-26T01:10:51;0.63;;;0.40;;
12784;SDS011;6456;42.680;23.260;2023-03-26T01:13:27;1.20;;;0.43;;
12784;SDS011;6456;42.680;23.260;2023-03-26T01:15:56;0.83;;;0.63;;
12784;SDS011;6456;42.680;23.260;2023-03-26T01:18:26;0.57;;;0.57;;
12784;SDS011;6456;42.680;23.260;2023-03-26T01:20:59;0.30;;;0.30;;
12784;SDS011;6456;42.680;23.260;2023-03-26T01:23:36;0.53;;;0.53;;
12784;SDS011;6456;42.680;23.260;2023-03-26T01:26:09;0.43;;;0.43;;
12784;SDS011;6456;42.680;23.260;2023-03-26T01:28:47;0.60;;;0.60;;
12784;SDS011;6456;42.680;23.260;2023-03-26T01:31:18;0.60;;;0.60;;
12784;SDS011;6456;42.680;23.260;2023-03-26T01:33:55;0.80;;;0.80;;
12784;SDS011;6456;42.680;23.260;2023-03-26T01:36:28;0.80;;;0.80;;
12784;SDS011;6456;42.680;23.260;2023-03-26T01:39:02;0.73;;;0.60;;
12784;SDS011;6456;42.680;23.260;2023-03-26T01:41:37;0.70;;;0.70;;
12784;SDS011;6456;42.680;23.260;2023-03-26T01:44:09;0.73;;;0.73;;
12784;SDS011;6456;42.680;23.260;2023-03-26T01:46:41;0.50;;;0.50;;
12784;SDS011;6456;42.680;23.260;2023-03-26T01:49:10;0.60;;;0.60;;
12784;SDS011;6456;42.680;23.260;2023-03-26T01:51:39;0.87;;;0.87;;
12784;SDS011;6456;42.680;23.260;2023-03-26T01:54:07;0.77;;;0.77;;
12784;SDS011;6456;42.680;23.260;2023-03-26T01:56:43;0.60;;;0.60;;
12784;SDS011;6456;42.680;23.260;2023-03-26T01:59:23;0.90;;;0.90;;
12784;SDS011;6456;42.680;23.260;2023-03-26T02:02:05;0.80;;;0.80;;
12784;SDS011;6456;42.680;23.260;2023-03-26T02:04:39;1.20;;;0.77;;
12784;SDS011;6456;42.680;23.260;2023-03-26T02:07:13;1.90;;;0.87;;
12784;SDS011;6456;42.680;23.260;2023-03-26T02:09:47;0.67;;;0.67;;
12784;SDS011;6456;42.680;23.260;2023-03-26T02:12:18;1.00;;;1.00;;
12784;SDS011;6456;42.680;23.260;2023-03-26T02:14:48;0.83;;;0.73;;
12784;SDS011;6456;42.680;23.260;2023-03-26T02:17:15;0.87;;;0.87;;
12784;SDS011;6456;42.680;23.260;2023-03-26T02:19:43;1.10;;;1.10;;
12784;SDS011;6456;42.680;23.260;2023-03-26T02:22:12;1.10;;;1.10;;
12784;SDS011;6456;42.680;23.260;2023-03-26T02:24:39;1.83;;;1.30;;
12784;SDS011;6456;42.680;23.260;2023-03-26T02:27:06;1.20;;;1.13;;
12784;SDS011;6456;42.680;23.260;2023-03-26T02:29:35;1.73;;;1.00;;
12784;SDS011;6456;42.680;23.260;2023-03-26T02:32:04;0.90;;;0.90;;
12784;SDS011;6456;42.680;23.260;2023-03-26T02:34:30;1.23;;;1.13;;
12784;SDS011;6456;42.680;23.260;2023-03-26T02:36:57;0.93;;;0.93;;
12784;SDS011;6456;42.680;23.260;2023-03-26T02:39:24;1.10;;;1.10;;
12784;SDS011;6456;42.680;23.260;2023-03-26T02:41:51;1.33;;;1.23;;
12784;SDS011;6456;42.680;23.260;2023-03-26T02:44:18;1.27;;;1.20;;
12784;SDS011;6456;42.680;23.260;2023-03-26T02:46:46;1.27;;;1.17;;
12784;SDS011;6456;42.680;23.260;2023-03-26T02:49:13;1.30;;;1.20;;
12784;SDS011;6456;42.680;23.260;2023-03-26T02:51:40;1.03;;;1.03;;
12784;SDS011;6456;42.680;23.260;2023-03-26T02:54:07;1.00;;;1.00;;
12784;SDS011;6456;42.680;23.260;2023-03-26T02:56:34;1.37;;;1.27;;
12784;SDS011;6456;42.680;23.260;2023-03-26T02:59:01;1.33;;;1.20;;
12784;SDS011;6456;42.680;23.260;2023-03-26T03:01:28;1.20;;;1.17;;
12784;SDS011;6456;42.680;23.260;2023-03-26T03:04:00;1.10;;;1.10;;
12784;SDS011;6456;42.680;23.260;2023-03-26T03:06:28;1.00;;;1.00;;
12784;SDS011;6456;42.680;23.260;2023-03-26T03:08:56;1.17;;;1.17;;
12784;SDS011;6456;42.680;23.260;2023-03-26T03:11:23;1.03;;;1.00;;
12784;SDS011;6456;42.680;23.260;2023-03-26T03:13:51;1.20;;;1.10;;
12784;SDS011;6456;42.680;23.260;2023-03-26T03:16:18;1.10;;;1.10;;
12784;SDS011;6456;42.680;23.260;2023-03-26T03:18:45;2.07;;;1.40;;
12784;SDS011;6456;42.680;23.260;2023-03-26T03:21:19;1.30;;;1.20;;
12784;SDS011;6456;42.680;23.260;2023-03-26T03:23:46;1.20;;;1.20;;
12784;SDS011;6456;42.680;23.260;2023-03-26T03:26:14;1.37;;;1.37;;
12784;SDS011;6456;42.680;23.260;2023-03-26T03:28:45;1.30;;;1.30;;
12784;SDS011;6456;42.680;23.260;2023-03-26T03:31:12;1.70;;;1.60;;
12784;SDS011;6456;42.680;23.260;2023-03-26T03:33:39;1.70;;;1.60;;
12784;SDS011;6456;42.680;23.260;2023-03-26T03:36:07;1.60;;;1.50;;
12784;SDS011;6456;42.680;23.260;2023-03-26T03:38:36;1.70;;;1.60;;
12784;SDS011;6456;42.680;23.260;2023-03-26T03:41:04;1.50;;;1.40;;
12784;SDS011;6456;42.680;23.260;2023-03-26T03:43:31;1.90;;;1.80;;
12784;SDS011;6456;42.680;23.260;2023-03-26T03:45:58;2.17;;;2.00;;
12784;SDS011;6456;42.680;23.260;2023-03-26T03:48:26;1.90;;;1.80;;
12784;SDS011;6456;42.680;23.260;2023-03-26T03:50:53;1.83;;;1.73;;
12784;SDS011;6456;42.680;23.260;2023-03-26T03:53:20;2.10;;;1.90;;
12784;SDS011;6456;42.680;23.260;2023-03-26T03:55:51;2.37;;;2.17;;
12784;SDS011;6456;42.680;23.260;2023-03-26T03:58:19;2.40;;;2.20;;
12784;SDS011;6456;42.680;23.260;2023-03-26T04:00:47;1.97;;;1.87;;
12784;SDS011;6456;42.680;23.260;2023-03-26T04:03:14;1.83;;;1.73;;
12784;SDS011;6456;42.680;23.260;2023-03-26T04:05:42;2.23;;;2.03;;
12784;SDS011;6456;42.680;23.260;2023-03-26T04:08:13;2.33;;;2.17;;
12784;SDS011;6456;42.680;23.260;2023-03-26T04:10:41;2.10;;;2.00;;
12784;SDS011;6456;42.680;23.260;2023-03-26T04:13:10;2.13;;;2.03;;
12784;SDS011;6456;42.680;23.260;2023-03-26T04:15:38;3.23;;;2.40;;
12784;SDS011;6456;42.680;23.260;2023-03-26T04:18:06;2.40;;;2.30;;
12784;SDS011;6456;42.680;23.260;2023-03-26T04:20:34;2.70;;;2.50;;
12784;SDS011;6456;42.680;23.260;2023-03-26T04:23:02;2.33;;;2.13;;
12784;SDS011;6456;42.680;23.260;2023-03-26T04:25:30;2.87;;;2.67;;
12784;SDS011;6456;42.680;23.260;2023-03-26T04:27:58;2.90;;;2.70;;
12784;SDS011;6456;42.680;23.260;2023-03-26T04:30:32;2.70;;;2.50;;
12784;SDS011;6456;42.680;23.260;2023-03-26T04:33:00;3.43;;;2.20;;
12784;SDS011;6456;42.680;23.260;2023-03-26T04:35:30;2.90;;;2.70;;
12784;SDS011;6456;42.680;23.260;2023-03-26T04:37:59;3.57;;;2.60;;
12784;SDS011;6456;42.680;23.260;2023-03-26T04:40:30;2.70;;;2.50;;
12784;SDS011;6456;42.680;23.260;2023-03-26T04:43:02;2.67;;;2.47;;
12784;SDS011;6456;42.680;23.260;2023-03-26T04:47:59;2.90;;;2.70;;
12784;SDS011;6456;42.680;23.260;2023-03-26T04:50:26;3.90;;;2.97;;
12784;SDS011;6456;42.680;23.260;2023-03-26T04:52:53;3.63;;;3.33;;
12784;SDS011;6456;42.680;23.260;2023-03-26T04:55:22;3.33;;;3.13;;
12784;SDS011;6456;42.680;23.260;2023-03-26T04:57:52;3.30;;;3.00;;
12784;SDS011;6456;42.680;23.260;2023-03-26T05:00:24;3.60;;;3.30;;
12784;SDS011;6456;42.680;23.260;2023-03-26T05:02:53;3.60;;;3.30;;
12784;SDS011;6456;42.680;23.260;2023-03-26T05:05:22;3.97;;;3.67;;
12784;SDS011;6456;42.680;23.260;2023-03-26T05:07:54;4.10;;;3.80;;
12784;SDS011;6456;42.680;23.260;2023-03-26T05:10:59;3.87;;;3.57;;
12784;SDS011;6456;42.680;23.260;2023-03-26T05:13:25;4.07;;;3.70;;
12784;SDS011;6456;42.680;23.260;2023-03-26T05:15:52;4.03;;;3.73;;
12784;SDS011;6456;42.680;23.260;2023-03-26T05:18:21;4.80;;;4.40;;
12784;SDS011;6456;42.680;23.260;2023-03-26T05:20:47;5.20;;;4.70;;
12784;SDS011;6456;42.680;23.260;2023-03-26T05:23:14;4.77;;;4.30;;
12784;SDS011;6456;42.680;23.260;2023-03-26T05:25:41;4.67;;;4.27;;
12784;SDS011;6456;42.680;23.260;2023-03-26T05:28:08;4.90;;;4.50;;
12784;SDS011;6456;42.680;23.260;2023-03-26T05:30:46;5.83;;;4.90;;
12784;SDS011;6456;42.680;23.260;2023-03-26T05:33:28;5.33;;;4.83;;
12784;SDS011;6456;42.680;23.260;2023-03-26T05:35:58;5.10;;;4.60;;
12784;SDS011;6456;42.680;23.260;2023-03-26T05:38:26;5.60;;;5.10;;
12784;SDS011;6456;42.680;23.260;2023-03-26T05:40:56;5.43;;;4.93;;
12784;SDS011;6456;42.680;23.260;2023-03-26T05:43:23;5.80;;;5.20;;
12784;SDS011;6456;42.680;23.260;2023-03-26T05:45:50;5.73;;;4.60;;
12784;SDS011;6456;42.680;23.260;2023-03-26T05:48:17;5.13;;;4.70;;
12784;SDS011;6456;42.680;23.260;2023-03-26T05:50:48;4.90;;;4.50;;
12784;SDS011;6456;42.680;23.260;2023-03-26T05:53:15;4.97;;;4.57;;
12784;SDS011;6456;42.680;23.260;2023-03-26T05:55:42;4.63;;;4.23;;
12784;SDS011;6456;42.680;23.260;2023-03-26T05:58:11;5.47;;;4.77;;
12784;SDS011;6456;42.680;23.260;2023-03-26T06:00:38;5.90;;;5.33;;
12784;SDS011;6456;42.680;23.260;2023-03-26T06:03:05;5.50;;;5.00;;
12784;SDS011;6456;42.680;23.260;2023-03-26T06:05:36;5.30;;;4.80;;
12784;SDS011;6456;42.680;23.260;2023-03-26T06:08:08;4.90;;;4.37;;
12784;SDS011;6456;42.680;23.260;2023-03-26T06:10:36;4.77;;;4.37;;
12784;SDS011;6456;42.680;23.260;2023-03-26T06:13:03;5.07;;;4.67;;
12784;SDS011;6456;42.680;23.260;2023-03-26T06:15:30;5.00;;;4.60;;
12784;SDS011;6456;42.680;23.260;2023-03-26T06:17:57;4.63;;;4.23;;
12784;SDS011;6456;42.680;23.260;2023-03-26T06:20:24;4.63;;;4.23;;
12784;SDS011;6456;42.680;23.260;2023-03-26T06:22:51;4.93;;;4.53;;
12784;SDS011;6456;42.680;23.260;2023-03-26T06:25:19;4.67;;;4.27;;
12784;SDS011;6456;42.680;23.260;2023-03-26T06:27:46;5.50;;;5.03;;
12784;SDS011;6456;42.680;23.260;2023-03-26T06:30:13;4.97;;;4.50;;
12784;SDS011;6456;42.680;23.260;2023-03-26T06:32:40;5.27;;;4.77;;
12784;SDS011;6456;42.680;23.260;2023-03-26T06:35:07;4.50;;;4.20;;
12784;SDS011;6456;42.680;23.260;2023-03-26T06:37:35;5.27;;;4.77;;
12784;SDS011;6456;42.680;23.260;2023-03-26T06:40:02;5.37;;;4.87;;
12784;SDS011;6456;42.680;23.260;2023-03-26T06:42:31;5.10;;;4.60;;
12784;SDS011;6456;42.680;23.260;2023-03-26T06:44:58;7.03;;;5.50;;
12784;SDS011;6456;42.680;23.260;2023-03-26T06:47:25;4.67;;;4.27;;
12784;SDS011;6456;42.680;23.260;2023-03-26T06:49:51;4.87;;;4.47;;
12784;SDS011;6456;42.680;23.260;2023-03-26T06:52:18;5.00;;;4.57;;
12784;SDS011;6456;42.680;23.260;2023-03-26T06:54:45;5.53;;;4.57;;
12784;SDS011;6456;42.680;23.260;2023-03-26T06:57:12;7.10;;;5.13;;
12784;SDS011;6456;42.680;23.260;2023-03-26T06:59:41;4.80;;;4.40;;
12784;SDS011;6456;42.680;23.260;2023-03-26T07:02:08;5.00;;;4.60;;
12784;SDS011;6456;42.680;23.260;2023-03-26T07:04:36;4.20;;;3.90;;
12784;SDS011;6456;42.680;23.260;2023-03-26T07:07:02;4.60;;;3.90;;
12784;SDS011;6456;42.680;23.260;2023-03-26T07:09:29;4.40;;;4.00;;
12784;SDS011;6456;42.680;23.260;2023-03-26T07:11:56;4.40;;;4.00;;
12784;SDS011;6456;42.680;23.260;2023-03-26T07:14:24;4.90;;;4.40;;
12784;SDS011;6456;42.680;23.260;2023-03-26T07:16:53;4.37;;;4.00;;
12784;SDS011;6456;42.680;23.260;2023-03-26T07:19:20;4.63;;;4.20;;
12784;SDS011;6456;42.680;23.260;2023-03-26T07:21:47;4.93;;;4.43;;
12784;SDS011;6456;42.680;23.260;2023-03-26T07:24:14;4.43;;;4.13;;
12784;SDS011;6456;42.680;23.260;2023-03-26T07:26:44;5.23;;;4.63;;
12784;SDS011;6456;42.680;23.260;2023-03-26T07:29:23;5.00;;;4.50;;
12784;SDS011;6456;42.680;23.260;2023-03-26T07:31:59;5.07;;;4.67;;
12784;SDS011;6456;42.680;23.260;2023-03-26T07:34:37;3.90;;;3.60;;
12784;SDS011;6456;42.680;23.260;2023-03-26T07:37:12;4.13;;;3.83;;
12784;SDS011;6456;42.680;23.260;2023-03-26T07:39:50;4.20;;;3.90;;
12784;SDS011;6456;42.680;23.260;2023-03-26T07:42:27;4.80;;;4.37;;
12784;SDS011;6456;42.680;23.260;2023-03-26T07:45:14;4.57;;;3.90;;
12784;SDS011;6456;42.680;23.260;2023-03-26T07:47:47;4.57;;;4.17;;
12784;SDS011;6456;42.680;23.260;2023-03-26T07:50:18;4.93;;;4.50;;
12784;SDS011;6456;42.680;23.260;2023-03-26T07:52:49;4.43;;;4.03;;
12784;SDS011;6456;42.680;23.260;2023-03-26T07:55:16;3.30;;;3.10;;
12784;SDS011;6456;42.680;23.260;2023-03-26T07:57:48;3.30;;;3.00;;
12784;SDS011;6456;42.680;23.260;2023-03-26T08:00:21;3.43;;;3.13;;
12784;SDS011;6456;42.680;23.260;2023-03-26T08:03:00;3.37;;;3.10;;
12784;SDS011;6456;42.680;23.260;2023-03-26T08:05:40;3.90;;;3.40;;
12784;SDS011;6456;42.680;23.260;2023-03-26T08:08:13;3.77;;;3.40;;
12784;SDS011;6456;42.680;23.260;2023-03-26T08:10:47;3.40;;;3.10;;
12784;SDS011;6456;42.680;23.260;2023-03-26T08:13:25;3.30;;;3.03;;
12784;SDS011;6456;42.680;23.260;2023-03-26T08:16:02;3.83;;;3.43;;
12784;SDS011;6456;42.680;23.260;2023-03-26T08:18:40;3.77;;;3.10;;
12784;SDS011;6456;42.680;23.260;2023-03-26T08:21:14;5.17;;;3.17;;
12784;SDS011;6456;42.680;23.260;2023-03-26T08:23:49;3.23;;;2.63;;
12784;SDS011;6456;42.680;23.260;2023-03-26T08:26:24;4.00;;;3.20;;
12784;SDS011;6456;42.680;23.260;2023-03-26T08:29:00;3.30;;;3.00;;
12784;SDS011;6456;42.680;23.260;2023-03-26T08:31:34;3.40;;;3.20;;
12784;SDS011;6456;42.680;23.260;2023-03-26T08:34:07;3.40;;;3.10;;
12784;SDS011;6456;42.680;23.260;2023-03-26T08:36:36;3.27;;;2.90;;
12784;SDS011;6456;42.680;23.260;2023-03-26T08:39:03;2.93;;;2.73;;
12784;SDS011;6456;42.680;23.260;2023-03-26T08:51:21;2.40;;;2.20;;
12784;SDS011;6456;42.680;23.260;2023-03-26T08:54:12;3.13;;;2.80;;
12784;SDS011;6456;42.680;23.260;2023-03-26T08:56:57;2.77;;;2.30;;
12784;SDS011;6456;42.680;23.260;2023-03-26T08:59:45;2.67;;;2.47;;
12784;SDS011;6456;42.680;23.260;2023-03-26T09:02:53;2.17;;;1.80;;
12784;SDS011;6456;42.680;23.260;2023-03-26T09:05:44;3.57;;;2.13;;
12784;SDS011;6456;42.680;23.260;2023-03-26T09:11:44;2.43;;;1.90;;
12784;SDS011;6456;42.680;23.260;2023-03-26T09:14:39;1.60;;;1.50;;
12784;SDS011;6456;42.680;23.260;2023-03-26T09:20:35;2.00;;;1.90;;
12784;SDS011;6456;42.680;23.260;2023-03-26T09:23:36;2.67;;;1.83;;
12784;SDS011;6456;42.680;23.260;2023-03-26T09:26:24;3.53;;;1.70;;
12784;SDS011;6456;42.680;23.260;2023-03-26T09:29:13;1.80;;;1.70;;
12784;SDS011;6456;42.680;23.260;2023-03-26T09:35:32;1.73;;;1.63;;
12784;SDS011;6456;42.680;23.260;2023-03-26T09:38:26;2.10;;;2.00;;
12784;SDS011;6456;42.680;23.260;2023-03-26T09:41:04;1.70;;;1.60;;
12784;SDS011;6456;42.680;23.260;2023-03-26T09:43:46;1.70;;;1.57;;
12784;SDS011;6456;42.680;23.260;2023-03-26T09:46:28;1.53;;;1.43;;
12784;SDS011;6456;42.680;23.260;2023-03-26T09:52:20;2.70;;;1.50;;
12784;SDS011;6456;42.680;23.260;2023-03-26T09:55:08;2.70;;;1.80;;
12784;SDS011;6456;42.680;23.260;2023-03-26T09:57:53;1.97;;;1.80;;
12784;SDS011;6456;42.680;23.260;2023-03-26T10:00:33;1.70;;;1.50;;
12784;SDS011;6456;42.680;23.260;2023-03-26T10:03:17;3.00;;;1.60;;
12784;SDS011;6456;42.680;23.260;2023-03-26T10:06:06;1.40;;;1.30;;
12784;SDS011;6456;42.680;23.260;2023-03-26T10:09:05;1.57;;;1.13;;
12784;SDS011;6456;42.680;23.260;2023-03-26T10:11:50;2.57;;;1.00;;
12784;SDS011;6456;42.680;23.260;2023-03-26T10:14:27;1.43;;;1.33;;
12784;SDS011;6456;42.680;23.260;2023-03-26T10:17:04;1.83;;;0.90;;
12784;SDS011;6456;42.680;23.260;2023-03-26T10:19:50;1.10;;;0.90;;
12784;SDS011;6456;42.680;23.260;2023-03-26T10:22:33;0.80;;;0.80;;
12784;SDS011;6456;42.680;23.260;2023-03-26T10:25:15;1.40;;;1.00;;
12784;SDS011;6456;42.680;23.260;2023-03-26T10:28:08;0.70;;;0.70;;
12784;SDS011;6456;42.680;23.260;2023-03-26T10:31:00;1.80;;;1.07;;
12784;SDS011;6456;42.680;23.260;2023-03-26T10:33:39;1.03;;;0.93;;
12784;SDS011;6456;42.680;23.260;2023-03-26T10:36:14;0.90;;;0.90;;
12784;SDS011;6456;42.680;23.260;2023-03-26T10:42:05;0.77;;;0.77;;
12784;SDS011;6456;42.680;23.260;2023-03-26T10:44:47;1.03;;;0.90;;
12784;SDS011;6456;42.680;23.260;2023-03-26T10:47:31;0.80;;;0.80;;
12784;SDS011;6456;42.680;23.260;2023-03-26T10:50:22;1.67;;;1.07;;
12784;SDS011;6456;42.680;23.260;2023-03-26T10:52:59;1.03;;;0.70;;
12784;SDS011;6456;42.680;23.260;2023-03-26T10:55:33;0.90;;;0.63;;
12784;SDS011;6456;42.680;23.260;2023-03-26T10:58:04;0.60;;;0.60;;
12784;SDS011;6456;42.680;23.260;2023-03-26T11:00:41;0.73;;;0.67;;
12784;SDS011;6456;42.680;23.260;2023-03-26T11:03:20;0.60;;;0.60;;
12784;SDS011;6456;42.680;23.260;2023-03-26T11:06:11;0.63;;;0.63;;
12784;SDS011;6456;42.680;23.260;2023-03-26T11:08:50;1.40;;;0.60;;
12784;SDS011;6456;42.680;23.260;2023-03-26T11:11:26;0.70;;;0.70;;
12784;SDS011;6456;42.680;23.260;2023-03-26T11:13:58;0.70;;;0.70;;
12784;SDS011;6456;42.680;23.260;2023-03-26T11:16:33;0.80;;;0.80;;
12784;SDS011;6456;42.680;23.260;2023-03-26T11:19:10;1.13;;;0.83;;
12784;SDS011;6456;42.680;23.260;2023-03-26T11:21:47;0.60;;;0.60;;
12784;SDS011;6456;42.680;23.260;2023-03-26T11:24:31;0.50;;;0.50;;
12784;SDS011;6456;42.680;23.260;2023-03-26T11:27:11;1.50;;;1.00;;
12784;SDS011;6456;42.680;23.260;2023-03-26T11:29:45;0.70;;;0.70;;
12784;SDS011;6456;42.680;23.260;2023-03-26T11:32:29;3.80;;;1.00;;
12784;SDS011;6456;42.680;23.260;2023-03-26T11:35:14;3.57;;;0.90;;
12784;SDS011;6456;42.680;23.260;2023-03-26T11:37:47;0.53;;;0.53;;
12784;SDS011;6456;42.680;23.260;2023-03-26T11:40:22;0.70;;;0.70;;
12784;SDS011;6456;42.680;23.260;2023-03-26T11:42:55;0.80;;;0.80;;
12784;SDS011;6456;42.680;23.260;2023-03-26T11:45:26;0.80;;;0.80;;
12784;SDS011;6456;42.680;23.260;2023-03-26T11:47:58;1.67;;;1.00;;
12784;SDS011;6456;42.680;23.260;2023-03-26T11:50:34;0.73;;;0.73;;
12784;SDS011;6456;42.680;23.260;2023-03-26T11:53:12;1.70;;;0.80;;
12784;SDS011;6456;42.680;23.260;2023-03-26T11:55:43;1.73;;;0.70;;
12784;SDS011;6456;42.680;23.260;2023-03-26T11:58:20;0.73;;;0.73;;
12784;SDS011;6456;42.680;23.260;2023-03-26T12:00:52;0.97;;;0.80;;
12784;SDS011;6456;42.680;23.260;2023-03-26T12:03:20;0.60;;;0.60;;
12784;SDS011;6456;42.680;23.260;2023-03-26T12:05:50;0.87;;;0.77;;
12784;SDS011;6456;42.680;23.260;2023-03-26T12:08:27;1.17;;;0.70;;
12784;SDS011;6456;42.680;23.260;2023-03-26T12:10:59;0.80;;;0.60;;
12784;SDS011;6456;42.680;23.260;2023-03-26T12:13:32;0.73;;;0.73;;
12784;SDS011;6456;42.680;23.260;2023-03-26T12:16:05;1.27;;;0.70;;
12784;SDS011;6456;42.680;23.260;2023-03-26T12:18:37;0.60;;;0.60;;
12784;SDS011;6456;42.680;23.260;2023-03-26T12:21:06;1.37;;;0.80;;
12784;SDS011;6456;42.680;23.260;2023-03-26T12:23:49;0.60;;;0.60;;
12784;SDS011;6456;42.680;23.260;2023-03-26T12:26:30;0.57;;;0.57;;
12784;SDS011;6456;42.680;23.260;2023-03-26T12:29:08;0.70;;;0.70;;
12784;SDS011;6456;42.680;23.260;2023-03-26T12:31:45;0.83;;;0.70;;
12784;SDS011;6456;42.680;23.260;2023-03-26T12:34:28;0.80;;;0.70;;
12784;SDS011;6456;42.680;23.260;2023-03-26T12:36:58;2.83;;;0.63;;
12784;SDS011;6456;42.680;23.260;2023-03-26T12:39:33;0.43;;;0.43;;
12784;SDS011;6456;42.680;23.260;2023-03-26T12:42:03;0.60;;;0.60;;
12784;SDS011;6456;42.680;23.260;2023-03-26T12:44:33;0.57;;;0.50;;
12784;SDS011;6456;42.680;23.260;2023-03-26T12:47:06;0.60;;;0.60;;
12784;SDS011;6456;42.680;23.260;2023-03-26T12:49:40;0.40;;;0.40;;
12784;SDS011;6456;42.680;23.260;2023-03-26T12:52:23;0.60;;;0.60;;
12784;SDS011;6456;42.680;23.260;2023-03-26T12:55:06;1.20;;;0.57;;
12784;SDS011;6456;42.680;23.260;2023-03-26T12:57:46;1.00;;;0.70;;
12784;SDS011;6456;42.680;23.260;2023-03-26T13:00:24;0.50;;;0.50;;
12784;SDS011;6456;42.680;23.260;2023-03-26T13:03:08;0.50;;;0.50;;
12784;SDS011;6456;42.680;23.260;2023-03-26T13:05:51;0.60;;;0.60;;
12784;SDS011;6456;42.680;23.260;2023-03-26T13:08:30;0.53;;;0.50;;
12784;SDS011;6456;42.680;23.260;2023-03-26T13:11:11;0.40;;;0.40;;
12784;SDS011;6456;42.680;23.260;2023-03-26T13:16:54;0.40;;;0.40;;
12784;SDS011;6456;42.680;23.260;2023-03-26T13:19:25;0.40;;;0.40;;
12784;SDS011;6456;42.680;23.260;2023-03-26T13:22:06;0.40;;;0.40;;
12784;SDS011;6456;42.680;23.260;2023-03-26T13:24:47;0.63;;;0.63;;
12784;SDS011;6456;42.680;23.260;2023-03-26T13:27:29;0.77;;;0.70;;
12784;SDS011;6456;42.680;23.260;2023-03-26T13:30:05;1.90;;;0.50;;
12784;SDS011;6456;42.680;23.260;2023-03-26T13:32:46;0.67;;;0.67;;
12784;SDS011;6456;42.680;23.260;2023-03-26T13:35:26;1.20;;;0.63;;
12784;SDS011;6456;42.680;23.260;2023-03-26T13:37:59;1.17;;;0.80;;
12784;SDS011;6456;42.680;23.260;2023-03-26T13:40:33;2.03;;;0.50;;
12784;SDS011;6456;42.680;23.260;2023-03-26T13:43:23;1.13;;;0.50;;
12784;SDS011;6456;42.680;23.260;2023-03-26T13:45:59;1.03;;;0.60;;
12784;SDS011;6456;42.680;23.260;2023-03-26T13:48:37;0.40;;;0.40;;
12784;SDS011;6456;42.680;23.260;2023-03-26T13:51:15;0.63;;;0.40;;
12784;SDS011;6456;42.680;23.260;2023-03-26T13:53:49;0.60;;;0.60;;
12784;SDS011;6456;42.680;23.260;2023-03-26T13:56:27;0.50;;;0.50;;
12784;SDS011;6456;42.680;23.260;2023-03-26T13:59:00;0.67;;;0.60;;
12784;SDS011;6456;42.680;23.260;2023-03-26T14:01:33;0.57;;;0.57;;
12784;SDS011;6456;42.680;23.260;2023-03-26T14:04:09;1.30;;;0.70;;
12784;SDS011;6456;42.680;23.260;2023-03-26T14:06:44;0.70;;;0.67;;
12784;SDS011;6456;42.680;23.260;2023-03-26T14:09:20;3.03;;;0.60;;
12784;SDS011;6456;42.680;23.260;2023-03-26T14:14:55;0.53;;;0.50;;
12784;SDS011;6456;42.680;23.260;2023-03-26T14:17:27;0.87;;;0.50;;
12784;SDS011;6456;42.680;23.260;2023-03-26T14:23:29;0.70;;;0.70;;
12784;SDS011;6456;42.680;23.260;2023-03-26T14:26:13;1.23;;;0.80;;
12784;SDS011;6456;42.680;23.260;2023-03-26T14:29:08;1.13;;;0.83;;
12784;SDS011;6456;42.680;23.260;2023-03-26T14:32:06;0.93;;;0.90;;
12784;SDS011;6456;42.680;23.260;2023-03-26T14:34:50;0.50;;;0.50;;
12784;SDS011;6456;42.680;23.260;2023-03-26T14:37:46;0.60;;;0.60;;
12784;SDS011;6456;42.680;23.260;2023-03-26T14:40:28;0.70;;;0.70;;
12784;SDS011;6456;42.680;23.260;2023-03-26T14:43:03;0.60;;;0.60;;
12784;SDS011;6456;42.680;23.260;2023-03-26T14:46:04;0.63;;;0.63;;
12784;SDS011;6456;42.680;23.260;2023-03-26T14:48:47;0.90;;;0.70;;
12784;SDS011;6456;42.680;23.260;2023-03-26T14:51:27;0.50;;;0.50;;
12784;SDS011;6456;42.680;23.260;2023-03-26T14:54:07;0.60;;;0.60;;
12784;SDS011;6456;42.680;23.260;2023-03-26T15:06:25;0.87;;;0.80;;
12784;SDS011;6456;42.680;23.260;2023-03-26T15:12:26;1.07;;;1.00;;
12784;SDS011;6456;42.680;23.260;2023-03-26T15:18:18;1.20;;;1.03;;
12784;SDS011;6456;42.680;23.260;2023-03-26T15:24:32;1.20;;;0.80;;
12784;SDS011;6456;42.680;23.260;2023-03-26T15:37:13;2.57;;;1.07;;
12784;SDS011;6456;42.680;23.260;2023-03-26T15:43:06;0.60;;;0.60;;
12784;SDS011;6456;42.680;23.260;2023-03-26T15:45:37;0.63;;;0.63;;
12784;SDS011;6456;42.680;23.260;2023-03-26T15:51:23;1.90;;;0.97;;
12784;SDS011;6456;42.680;23.260;2023-03-26T15:54:02;1.20;;;1.07;;
12784;SDS011;6456;42.680;23.260;2023-03-26T15:56:43;2.20;;;1.10;;
12784;SDS011;6456;42.680;23.260;2023-03-26T15:59:28;1.00;;;0.93;;
12784;SDS011;6456;42.680;23.260;2023-03-26T16:02:12;2.07;;;1.40;;
12784;SDS011;6456;42.680;23.260;2023-03-26T16:04:49;1.20;;;1.03;;
12784;SDS011;6456;42.680;23.260;2023-03-26T16:10:22;1.10;;;1.00;;
12784;SDS011;6456;42.680;23.260;2023-03-26T16:16:10;1.87;;;1.07;;
12784;SDS011;6456;42.680;23.260;2023-03-26T16:18:45;1.10;;;1.00;;
12784;SDS011;6456;42.680;23.260;2023-03-26T16:21:23;1.27;;;1.13;;
12784;SDS011;6456;42.680;23.260;2023-03-26T16:24:16;0.93;;;0.93;;
12784;SDS011;6456;42.680;23.260;2023-03-26T16:30:06;2.17;;;1.20;;
12784;SDS011;6456;42.680;23.260;2023-03-26T16:32:40;1.60;;;1.30;;
12784;SDS011;6456;42.680;23.260;2023-03-26T16:35:32;1.67;;;1.40;;
12784;SDS011;6456;42.680;23.260;2023-03-26T16:38:09;1.93;;;1.33;;
12784;SDS011;6456;42.680;23.260;2023-03-26T16:43:46;1.60;;;1.00;;
12784;SDS011;6456;42.680;23.260;2023-03-26T16:46:30;1.30;;;1.20;;
12784;SDS011;6456;42.680;23.260;2023-03-26T16:49:06;1.47;;;1.17;;
12784;SDS011;6456;42.680;23.260;2023-03-26T16:51:48;2.33;;;2.00;;
12784;SDS011;6456;42.680;23.260;2023-03-26T16:54:26;4.10;;;2.67;;
12784;SDS011;6456;42.680;23.260;2023-03-26T16:57:06;8.20;;;3.53;;